sensor_id;sensor_type;location;lat;lon;timestamp;pressure;altitude;pressure_sealevel;temperature;humidity
14612;BME280;7392;52.078;11.650;2022-10-15T00:01:03;100081.44;;;13.41;100.00
14612;BME280;7392;52.078;11.650;2022-10-15T00:03:31;100081.44;;;13.41;100.00
14612;BME280;7392;52.078;11.650;2022-10-15T00:06:03;100074.31;;;13.42;100.00
14612;BME280;7392;52.078;11.650;2022-10-15T00:08:31;100073.44;;;13.41;100.00
14612;BME280;7392;52.078;11.650;2022-10-15T00:11:06;100069.03;;;13.39;100.00
14612;BME280;7392;52.078;11.650;2022-10-15T00:13:35;100069.06;;;13.37;100.00
14612;BME280;7392;52.078;11.650;2022-10-15T00:16:05;100074.47;;;13.36;100.00
14612;BME280;7392;52.078;11.650;2022-10-15T00:18:33;100076.28;;;13.34;100.00
14612;BME280;7392;52.078;11.650;2022-10-15T00:21:05;100069.22;;;13.33;100.00
14612;BME280;7392;52.078;11.650;2022-10-15T00:23:33;100064.78;;;13.30;100.00
14612;BME280;7392;52.078;11.650;2022-10-15T00:26:05;100066.59;;;13.28;100.00
14612;BME280;7392;52.078;11.650;2022-10-15T00:28:33;100071.06;;;13.27;100.00
14612;BME280;7392;52.078;11.650;2022-10-15T00:31:04;100064.91;;;13.25;100.00
14612;BME280;7392;52.078;11.650;2022-10-15T00:33:32;100063.09;;;13.26;100.00
14612;BME280;7392;52.078;11.650;2022-10-15T00:36:01;100061.34;;;13.25;100.00
14612;BME280;7392;52.078;11.650;2022-10-15T00:38:29;100072.91;;;13.25;100.00
14612;BME280;7392;52.078;11.650;2022-10-15T00:40:58;100080.00;;;13.25;100.00
14612;BME280;7392;52.078;11.650;2022-10-15T00:43:39;100078.28;;;13.24;100.00
14612;BME280;7392;52.078;11.650;2022-10-15T00:46:15;100069.38;;;13.23;100.00
14612;BME280;7392;52.078;11.650;2022-10-15T00:48:45;100074.75;;;13.22;100.00
14612;BME280;7392;52.078;11.650;2022-10-15T00:51:16;100070.34;;;13.21;100.00
14612;BME280;7392;52.078;11.650;2022-10-15T00:53:47;100061.50;;;13.19;100.00
14612;BME280;7392;52.078;11.650;2022-10-15T00:56:18;100060.59;;;13.18;100.00
14612;BME280;7392;52.078;11.650;2022-10-15T00:58:50;100059.75;;;13.18;100.00
14612;BME280;7392;52.078;11.650;2022-10-15T01:01:21;100066.91;;;13.16;100.00
14612;BME280;7392;52.078;11.650;2022-10-15T01:03:52;100050.94;;;13.14;100.00
14612;BME280;7392;52.078;11.650;2022-10-15T01:06:19;100048.31;;;13.13;100.00
14612;BME280;7392;52.078;11.650;2022-10-15T01:08:50;100052.75;;;13.14;100.00
14612;BME280;7392;52.078;11.650;2022-10-15T01:11:29;100055.44;;;13.12;100.00
14612;BME280;7392;52.078;11.650;2022-10-15T01:14:21;100057.25;;;13.10;100.00
14612;BME280;7392;52.078;11.650;2022-10-15T01:16:55;100050.19;;;13.09;100.00
14612;BME280;7392;52.078;11.650;2022-10-15T01:19:46;100049.25;;;13.10;100.00
14612;BME280;7392;52.078;11.650;2022-10-15T01:22:23;100051.03;;;13.09;100.00
14612;BME280;7392;52.078;11.650;2022-10-15T01:25:03;100045.72;;;13.09;100.00
14612;BME280;7392;52.078;11.650;2022-10-15T01:27:41;100040.38;;;13.09;100.00
14612;BME280;7392;52.078;11.650;2022-10-15T01:30:28;100035.06;;;13.09;100.00
14612;BME280;7392;52.078;11.650;2022-10-15T01:33:25;100036.81;;;13.10;100.00
14612;BME280;7392;52.078;11.650;2022-10-15T01:36:01;100029.72;;;13.09;100.00
14612;BME280;7392;52.078;11.650;2022-10-15T01:38:39;100031.53;;;13.09;100.00
14612;BME280;7392;52.078;11.650;2022-10-15T01:41:16;100026.19;;;13.09;100.00
14612;BME280;7392;52.078;11.650;2022-10-15T01:43:55;100028.00;;;13.08;100.00
14612;BME280;7392;52.078;11.650;2022-10-15T01:46:47;100025.34;;;13.07;100.00
14612;BME280;7392;52.078;11.650;2022-10-15T01:49:22;100021.75;;;13.08;100.00
14612;BME280;7392;52.078;11.650;2022-10-15T01:51:53;100030.66;;;13.08;100.00
14612;BME280;7392;52.078;11.650;2022-10-15T01:54:24;100021.78;;;13.06;100.00
14612;BME280;7392;52.078;11.650;2022-10-15T01:56:54;100025.38;;;13.05;100.00
14612;BME280;7392;52.078;11.650;2022-10-15T01:59:24;100024.56;;;13.03;100.00
14612;BME280;7392;52.078;11.650;2022-10-15T02:01:55;100017.50;;;13.01;100.00
14612;BME280;7392;52.078;11.650;2022-10-15T02:04:25;100012.19;;;12.99;100.00
14612;BME280;7392;52.078;11.650;2022-10-15T02:06:58;100015.78;;;12.98;100.00
14612;BME280;7392;52.078;11.650;2022-10-15T02:09:36;100012.22;;;12.98;100.00
14612;BME280;7392;52.078;11.650;2022-10-15T02:12:11;100013.16;;;12.97;100.00
14612;BME280;7392;52.078;11.650;2022-10-15T02:14:51;100007.84;;;12.95;100.00
14612;BME280;7392;52.078;11.650;2022-10-15T02:17:23;100006.97;;;12.95;100.00
14612;BME280;7392;52.078;11.650;2022-10-15T02:19:58;100013.22;;;12.94;100.00
14612;BME280;7392;52.078;11.650;2022-10-15T02:22:32;100008.81;;;12.91;100.00
14612;BME280;7392;52.078;11.650;2022-10-15T02:25:04;100007.13;;;12.88;100.00
14612;BME280;7392;52.078;11.650;2022-10-15T02:27:36;100008.91;;;12.88;100.00
14612;BME280;7392;52.078;11.650;2022-10-15T02:30:07;100006.28;;;12.86;100.00
14612;BME280;7392;52.078;11.650;2022-10-15T02:32:38;100003.66;;;12.85;100.00
14612;BME280;7392;52.078;11.650;2022-10-15T02:35:09;100010.72;;;12.86;100.00
14612;BME280;7392;52.078;11.650;2022-10-15T02:37:43;100006.31;;;12.85;100.00
14612;BME280;7392;52.078;11.650;2022-10-15T02:40:17;100007.22;;;12.84;100.00
14612;BME280;7392;52.078;11.650;2022-10-15T02:42:48;100006.34;;;12.83;100.00
14612;BME280;7392;52.078;11.650;2022-10-15T02:45:16;99994.88;;;12.81;100.00
14612;BME280;7392;52.078;11.650;2022-10-15T02:47:45;99999.28;;;12.81;100.00
14612;BME280;7392;52.078;11.650;2022-10-15T02:50:13;99996.66;;;12.79;100.00
14612;BME280;7392;52.078;11.650;2022-10-15T02:52:41;99991.34;;;12.79;100.00
14612;BME280;7392;52.078;11.650;2022-10-15T02:55:10;99992.25;;;12.78;100.00
14612;BME280;7392;52.078;11.650;2022-10-15T02:57:38;99990.47;;;12.79;100.00
14612;BME280;7392;52.078;11.650;2022-10-15T03:00:08;99997.59;;;12.78;100.00
14612;BME280;7392;52.078;11.650;2022-10-15T03:02:37;99988.72;;;12.78;100.00
14612;BME280;7392;52.078;11.650;2022-10-15T03:05:07;99991.41;;;12.78;100.00
14612;BME280;7392;52.078;11.650;2022-10-15T03:07:36;99993.16;;;12.77;100.00
14612;BME280;7392;52.078;11.650;2022-10-15T03:10:05;99993.16;;;12.77;100.00
14612;BME280;7392;52.078;11.650;2022-10-15T03:12:33;99988.75;;;12.76;100.00
14612;BME280;7392;52.078;11.650;2022-10-15T03:15:03;99992.31;;;12.75;100.00
14612;BME280;7392;52.078;11.650;2022-10-15T03:17:31;99991.47;;;12.75;100.00
14612;BME280;7392;52.078;11.650;2022-10-15T03:19:59;99986.16;;;12.73;100.00
14612;BME280;7392;52.078;11.650;2022-10-15T03:22:29;99988.81;;;12.73;100.00
14612;BME280;7392;52.078;11.650;2022-10-15T03:24:58;99982.63;;;12.72;100.00
14612;BME280;7392;52.078;11.650;2022-10-15T03:27:27;99987.06;;;12.72;100.00
14612;BME280;7392;52.078;11.650;2022-10-15T03:29:55;99980.88;;;12.71;100.00
14612;BME280;7392;52.078;11.650;2022-10-15T03:32:26;99979.97;;;12.72;100.00
14612;BME280;7392;52.078;11.650;2022-10-15T03:35:00;99968.41;;;12.72;100.00
14612;BME280;7392;52.078;11.650;2022-10-15T03:37:28;99963.09;;;12.72;100.00
14612;BME280;7392;52.078;11.650;2022-10-15T03:39:57;99971.97;;;12.72;100.00
14612;BME280;7392;52.078;11.650;2022-10-15T03:42:26;99977.31;;;12.72;100.00
14612;BME280;7392;52.078;11.650;2022-10-15T03:44:54;99978.16;;;12.73;100.00
14612;BME280;7392;52.078;11.650;2022-10-15T03:47:22;99981.69;;;12.73;100.00
14612;BME280;7392;52.078;11.650;2022-10-15T03:49:51;99981.69;;;12.73;100.00
14612;BME280;7392;52.078;11.650;2022-10-15T03:52:19;99977.31;;;12.72;100.00
14612;BME280;7392;52.078;11.650;2022-10-15T03:54:49;99984.41;;;12.72;100.00
14612;BME280;7392;52.078;11.650;2022-10-15T03:57:20;99988.00;;;12.71;100.00
14612;BME280;7392;52.078;11.650;2022-10-15T03:59:53;99978.22;;;12.70;100.00
14612;BME280;7392;52.078;11.650;2022-10-15T04:02:23;99988.03;;;12.69;100.00
14612;BME280;7392;52.078;11.650;2022-10-15T04:04:52;99977.41;;;12.68;100.00
14612;BME280;7392;52.078;11.650;2022-10-15T04:07:21;99980.06;;;12.68;100.00
14612;BME280;7392;52.078;11.650;2022-10-15T04:09:49;99986.28;;;12.67;100.00
14612;BME280;7392;52.078;11.650;2022-10-15T04:12:30;99987.19;;;12.67;100.00
14612;BME280;7392;52.078;11.650;2022-10-15T04:14:57;99986.28;;;12.67;100.00
14612;BME280;7392;52.078;11.650;2022-10-15T04:17:26;99988.09;;;12.66;100.00
14612;BME280;7392;52.078;11.650;2022-10-15T04:19:55;99984.53;;;12.67;100.00
14612;BME280;7392;52.078;11.650;2022-10-15T04:22:24;99982.75;;;12.66;100.00
14612;BME280;7392;52.078;11.650;2022-10-15T04:24:57;99981.91;;;12.66;100.00
14612;BME280;7392;52.078;11.650;2022-10-15T04:27:27;99983.66;;;12.65;100.00
14612;BME280;7392;52.078;11.650;2022-10-15T04:30:09;99980.13;;;12.65;100.00
14612;BME280;7392;52.078;11.650;2022-10-15T04:32:41;99981.03;;;12.64;100.00
14612;BME280;7392;52.078;11.650;2022-10-15T04:35:10;99980.16;;;12.63;100.00
14612;BME280;7392;52.078;11.650;2022-10-15T04:37:58;99984.63;;;12.63;100.00
14612;BME280;7392;52.078;11.650;2022-10-15T04:40:32;99993.50;;;12.62;100.00
14612;BME280;7392;52.078;11.650;2022-10-15T04:43:01;99995.31;;;12.61;100.00
14612;BME280;7392;52.078;11.650;2022-10-15T04:45:31;99997.09;;;12.61;100.00
14612;BME280;7392;52.078;11.650;2022-10-15T04:47:58;99994.47;;;12.59;100.00
14612;BME280;7392;52.078;11.650;2022-10-15T04:50:26;99998.88;;;12.60;100.00
14612;BME280;7392;52.078;11.650;2022-10-15T04:53:16;99998.91;;;12.59;100.00
14612;BME280;7392;52.078;11.650;2022-10-15T04:55:48;100006.03;;;12.58;100.00
14612;BME280;7392;52.078;11.650;2022-10-15T04:58:16;100006.03;;;12.58;100.00
14612;BME280;7392;52.078;11.650;2022-10-15T05:00:45;100003.34;;;12.58;100.00
14612;BME280;7392;52.078;11.650;2022-10-15T05:03:31;99999.84;;;12.56;100.00
14612;BME280;7392;52.078;11.650;2022-10-15T05:06:06;99999.84;;;12.58;100.00
14612;BME280;7392;52.078;11.650;2022-10-15T05:08:37;100000.72;;;12.57;100.00
14612;BME280;7392;52.078;11.650;2022-10-15T05:11:16;99998.97;;;12.57;100.00
14612;BME280;7392;52.078;11.650;2022-10-15T05:13:45;100005.19;;;12.56;100.00
14612;BME280;7392;52.078;11.650;2022-10-15T05:16:16;100002.50;;;12.58;100.00
14612;BME280;7392;52.078;11.650;2022-10-15T05:18:45;100001.63;;;12.57;100.00
14612;BME280;7392;52.078;11.650;2022-10-15T05:21:14;99999.00;;;12.56;100.00
14612;BME280;7392;52.078;11.650;2022-10-15T05:23:44;100003.41;;;12.55;100.00
14612;BME280;7392;52.078;11.650;2022-10-15T05:26:22;100003.41;;;12.55;100.00
14612;BME280;7392;52.078;11.650;2022-10-15T05:28:51;100011.41;;;12.55;100.00
14612;BME280;7392;52.078;11.650;2022-10-15T05:31:27;100013.19;;;12.56;100.00
14612;BME280;7392;52.078;11.650;2022-10-15T05:34:06;100018.50;;;12.56;100.00
14612;BME280;7392;52.078;11.650;2022-10-15T05:36:42;100012.34;;;12.54;100.00
14612;BME280;7392;52.078;11.650;2022-10-15T05:39:09;100016.75;;;12.55;100.00
14612;BME280;7392;52.078;11.650;2022-10-15T05:41:42;100025.63;;;12.56;100.00
14612;BME280;7392;52.078;11.650;2022-10-15T05:44:10;100027.38;;;12.55;100.00
14612;BME280;7392;52.078;11.650;2022-10-15T05:46:39;100031.84;;;12.54;100.00
14612;BME280;7392;52.078;11.650;2022-10-15T05:49:09;100023.00;;;12.54;100.00
14612;BME280;7392;52.078;11.650;2022-10-15T05:51:49;100031.88;;;12.53;100.00
14612;BME280;7392;52.078;11.650;2022-10-15T05:54:37;100034.53;;;12.53;100.00
14612;BME280;7392;52.078;11.650;2022-10-15T05:57:05;100031.00;;;12.52;100.00
14612;BME280;7392;52.078;11.650;2022-10-15T05:59:33;100028.31;;;12.54;100.00
14612;BME280;7392;52.078;11.650;2022-10-15T06:02:02;100028.31;;;12.54;100.00
14612;BME280;7392;52.078;11.650;2022-10-15T06:04:30;100026.53;;;12.54;100.00
14612;BME280;7392;52.078;11.650;2022-10-15T06:07:01;100030.06;;;12.55;100.00
14612;BME280;7392;52.078;11.650;2022-10-15T06:09:29;100035.34;;;12.57;100.00
14612;BME280;7392;52.078;11.650;2022-10-15T06:11:56;100023.88;;;12.54;100.00
14612;BME280;7392;52.078;11.650;2022-10-15T06:14:24;100021.16;;;12.56;100.00
14612;BME280;7392;52.078;11.650;2022-10-15T06:16:52;100020.28;;;12.57;100.00
14612;BME280;7392;52.078;11.650;2022-10-15T06:19:21;100031.75;;;12.59;100.00
14612;BME280;7392;52.078;11.650;2022-10-15T06:21:49;100031.72;;;12.61;100.00
14612;BME280;7392;52.078;11.650;2022-10-15T06:24:17;100028.09;;;12.63;100.00
14612;BME280;7392;52.078;11.650;2022-10-15T06:26:45;100033.41;;;12.65;100.00
14612;BME280;7392;52.078;11.650;2022-10-15T06:29:12;100043.16;;;12.66;100.00
14612;BME280;7392;52.078;11.650;2022-10-15T06:31:40;100039.56;;;12.67;100.00
14612;BME280;7392;52.078;11.650;2022-10-15T06:34:08;100044.84;;;12.70;100.00
14612;BME280;7392;52.078;11.650;2022-10-15T06:36:37;100050.13;;;12.71;100.00
14612;BME280;7392;52.078;11.650;2022-10-15T06:39:05;100050.09;;;12.73;100.00
14612;BME280;7392;52.078;11.650;2022-10-15T06:41:33;100050.91;;;12.77;100.00
14612;BME280;7392;52.078;11.650;2022-10-15T06:44:01;100047.28;;;12.79;100.00
14612;BME280;7392;52.078;11.650;2022-10-15T06:46:29;100055.22;;;12.82;100.00
14612;BME280;7392;52.078;11.650;2022-10-15T06:48:57;100046.25;;;12.86;100.00
14612;BME280;7392;52.078;11.650;2022-10-15T06:51:24;100056.81;;;12.89;100.00
14612;BME280;7392;52.078;11.650;2022-10-15T06:53:53;100055.00;;;12.93;100.00
14612;BME280;7392;52.078;11.650;2022-10-15T06:56:21;100054.88;;;12.98;100.00
14612;BME280;7392;52.078;11.650;2022-10-15T06:58:49;100055.66;;;13.01;100.00
14612;BME280;7392;52.078;11.650;2022-10-15T07:01:17;100062.72;;;13.05;100.00
14612;BME280;7392;52.078;11.650;2022-10-15T07:03:48;100075.06;;;13.08;100.00
14612;BME280;7392;52.078;11.650;2022-10-15T07:06:16;100066.09;;;13.12;100.00
14612;BME280;7392;52.078;11.650;2022-10-15T07:08:44;100072.25;;;13.16;100.00
14612;BME280;7392;52.078;11.650;2022-10-15T07:11:13;100075.72;;;13.19;100.00
14612;BME280;7392;52.078;11.650;2022-10-15T07:13:41;100081.81;;;13.24;100.00
14612;BME280;7392;52.078;11.650;2022-10-15T07:16:11;100097.72;;;13.29;100.00
14612;BME280;7392;52.078;11.650;2022-10-15T07:18:39;100089.59;;;13.34;100.00
14612;BME280;7392;52.078;11.650;2022-10-15T07:21:07;100095.75;;;13.37;100.00
14612;BME280;7392;52.078;11.650;2022-10-15T07:23:36;100097.41;;;13.43;100.00
14612;BME280;7392;52.078;11.650;2022-10-15T07:26:04;100106.22;;;13.46;100.00
14612;BME280;7392;52.078;11.650;2022-10-15T07:28:33;100099.88;;;13.51;100.00
14612;BME280;7392;52.078;11.650;2022-10-15T07:31:03;100099.78;;;13.55;100.00
14612;BME280;7392;52.078;11.650;2022-10-15T07:33:31;100104.97;;;13.61;100.00
14612;BME280;7392;52.078;11.650;2022-10-15T07:36:02;100107.50;;;13.66;100.00
14612;BME280;7392;52.078;11.650;2022-10-15T07:38:31;100102.97;;;13.70;100.00
14612;BME280;7392;52.078;11.650;2022-10-15T07:40:59;100102.81;;;13.76;100.00
14612;BME280;7392;52.078;11.650;2022-10-15T07:43:27;100104.47;;;13.80;100.00
14612;BME280;7392;52.078;11.650;2022-10-15T07:45:57;100098.16;;;13.84;100.00
14612;BME280;7392;52.078;11.650;2022-10-15T07:48:25;100095.38;;;13.89;100.00
14612;BME280;7392;52.078;11.650;2022-10-15T07:50:53;100100.63;;;13.92;100.00
14612;BME280;7392;52.078;11.650;2022-10-15T07:53:21;100096.97;;;13.96;100.00
14612;BME280;7392;52.078;11.650;2022-10-15T07:55:57;100100.44;;;13.99;100.00
14612;BME280;7392;52.078;11.650;2022-10-15T07:58:29;100099.38;;;14.05;100.00
14612;BME280;7392;52.078;11.650;2022-10-15T08:01:02;100102.81;;;14.10;100.00
14612;BME280;7392;52.078;11.650;2022-10-15T08:03:30;100101.75;;;14.16;100.00
14612;BME280;7392;52.078;11.650;2022-10-15T08:05:59;100102.47;;;14.22;100.00
14612;BME280;7392;52.078;11.650;2022-10-15T08:08:27;100099.59;;;14.30;100.00
14612;BME280;7392;52.078;11.650;2022-10-15T08:10:55;100102.09;;;14.36;100.00
14612;BME280;7392;52.078;11.650;2022-10-15T08:13:23;100104.59;;;14.43;100.00
14612;BME280;7392;52.078;11.650;2022-10-15T08:15:53;100112.50;;;14.47;100.00
14612;BME280;7392;52.078;11.650;2022-10-15T08:18:27;100099.91;;;14.51;100.00
14612;BME280;7392;52.078;11.650;2022-10-15T08:20:57;100113.13;;;14.57;100.00
14612;BME280;7392;52.078;11.650;2022-10-15T08:23:26;100105.88;;;14.62;100.00
14612;BME280;7392;52.078;11.650;2022-10-15T08:25:53;100108.38;;;14.67;100.00
14612;BME280;7392;52.078;11.650;2022-10-15T08:28:23;100111.75;;;14.73;100.00
14612;BME280;7392;52.078;11.650;2022-10-15T08:30:51;100118.72;;;14.79;100.00
14612;BME280;7392;52.078;11.650;2022-10-15T08:33:19;100125.69;;;14.85;100.00
14612;BME280;7392;52.078;11.650;2022-10-15T08:35:48;100122.88;;;14.89;100.00
14612;BME280;7392;52.078;11.650;2022-10-15T08:38:16;100132.53;;;14.95;100.00
14612;BME280;7392;52.078;11.650;2022-10-15T08:40:46;100116.31;;;15.00;100.00
14612;BME280;7392;52.078;11.650;2022-10-15T08:43:20;100122.22;;;15.11;100.00
14612;BME280;7392;52.078;11.650;2022-10-15T08:45:50;100128.19;;;15.21;100.00
14612;BME280;7392;52.078;11.650;2022-10-15T08:48:23;100129.72;;;15.28;100.00
14612;BME280;7392;52.078;11.650;2022-10-15T08:50:56;100133.13;;;15.33;100.00
14612;BME280;7392;52.078;11.650;2022-10-15T08:53:27;100136.53;;;15.38;100.00
14612;BME280;7392;52.078;11.650;2022-10-15T08:55:59;100135.50;;;15.42;100.00
14612;BME280;7392;52.078;11.650;2022-10-15T08:58:41;100137.13;;;15.48;100.00
14612;BME280;7392;52.078;11.650;2022-10-15T09:01:17;100132.50;;;15.53;100.00
14612;BME280;7392;52.078;11.650;2022-10-15T09:03:55;100139.50;;;15.57;100.00
14612;BME280;7392;52.078;11.650;2022-10-15T09:06:32;100134.88;;;15.62;100.00
14612;BME280;7392;52.078;11.650;2022-10-15T09:09:06;100147.09;;;15.71;100.00
14612;BME280;7392;52.078;11.650;2022-10-15T09:11:52;100144.19;;;15.79;100.00
14612;BME280;7392;52.078;11.650;2022-10-15T09:14:25;100148.41;;;15.86;100.00
14612;BME280;7392;52.078;11.650;2022-10-15T09:16:59;100150.84;;;15.94;100.00
14612;BME280;7392;52.078;11.650;2022-10-15T09:19:28;100146.22;;;15.99;100.00
14612;BME280;7392;52.078;11.650;2022-10-15T09:22:00;100151.34;;;16.05;100.00
14612;BME280;7392;52.078;11.650;2022-10-15T09:24:28;100145.94;;;16.06;100.00
14612;BME280;7392;52.078;11.650;2022-10-15T09:27:02;100143.25;;;16.06;100.00
14612;BME280;7392;52.078;11.650;2022-10-15T09:29:37;100154.63;;;16.13;100.00
14612;BME280;7392;52.078;11.650;2022-10-15T09:32:13;100153.53;;;16.19;100.00
14612;BME280;7392;52.078;11.650;2022-10-15T09:34:47;100147.13;;;16.24;100.00
14612;BME280;7392;52.078;11.650;2022-10-15T09:37:24;100155.78;;;16.31;100.00
14612;BME280;7392;52.078;11.650;2022-10-15T09:40:19;100153.94;;;16.33;100.00
14612;BME280;7392;52.078;11.650;2022-10-15T09:42:51;100155.59;;;16.37;100.00
14612;BME280;7392;52.078;11.650;2022-10-15T09:45:21;100158.09;;;16.42;100.00
14612;BME280;7392;52.078;11.650;2022-10-15T09:47:51;100151.66;;;16.48;100.00
14612;BME280;7392;52.078;11.650;2022-10-15T09:50:19;100146.94;;;16.54;100.00
14612;BME280;7392;52.078;11.650;2022-10-15T09:53:02;100154.63;;;16.63;100.00
14612;BME280;7392;52.078;11.650;2022-10-15T09:55:36;100166.78;;;16.74;100.00
14612;BME280;7392;52.078;11.650;2022-10-15T09:58:07;100163.69;;;16.86;100.00
14612;BME280;7392;52.078;11.650;2022-10-15T10:00:53;100161.53;;;16.96;100.00
14612;BME280;7392;52.078;11.650;2022-10-15T10:03:23;100152.44;;;17.00;100.00
14612;BME280;7392;52.078;11.650;2022-10-15T10:05:58;100142.53;;;17.02;100.00
14612;BME280;7392;52.078;11.650;2022-10-15T10:08:32;100152.38;;;17.01;99.33
14612;BME280;7392;52.078;11.650;2022-10-15T10:11:02;100159.38;;;17.06;100.00
14612;BME280;7392;52.078;11.650;2022-10-15T10:13:34;100159.19;;;17.10;99.41
14612;BME280;7392;52.078;11.650;2022-10-15T10:16:07;100156.16;;;17.19;100.00
14612;BME280;7392;52.078;11.650;2022-10-15T10:18:36;100147.06;;;17.24;98.94
14612;BME280;7392;52.078;11.650;2022-10-15T10:21:08;100147.81;;;17.27;98.93
14612;BME280;7392;52.078;11.650;2022-10-15T10:23:50;100152.13;;;17.31;99.04
14612;BME280;7392;52.078;11.650;2022-10-15T10:26:18;100152.81;;;17.36;98.65
14612;BME280;7392;52.078;11.650;2022-10-15T10:28:50;100155.31;;;17.41;98.18
14612;BME280;7392;52.078;11.650;2022-10-15T10:31:28;100155.16;;;17.46;97.90
14612;BME280;7392;52.078;11.650;2022-10-15T10:33:59;100162.81;;;17.55;97.79
14612;BME280;7392;52.078;11.650;2022-10-15T10:36:29;100157.97;;;17.65;97.40
14612;BME280;7392;52.078;11.650;2022-10-15T10:39:13;100158.69;;;17.68;96.57
14612;BME280;7392;52.078;11.650;2022-10-15T10:41:47;100161.19;;;17.73;96.82
14612;BME280;7392;52.078;11.650;2022-10-15T10:44:24;100161.06;;;17.76;96.17
14612;BME280;7392;52.078;11.650;2022-10-15T10:47:08;100152.19;;;17.74;95.99
14612;BME280;7392;52.078;11.650;2022-10-15T10:49:38;100155.06;;;17.69;94.92
14612;BME280;7392;52.078;11.650;2022-10-15T10:52:23;100158.69;;;17.68;95.44
14612;BME280;7392;52.078;11.650;2022-10-15T10:54:57;100163.19;;;17.68;94.04
14612;BME280;7392;52.078;11.650;2022-10-15T10:57:33;100163.31;;;17.65;93.58
14612;BME280;7392;52.078;11.650;2022-10-15T11:00:03;100169.56;;;17.65;93.14
14612;BME280;7392;52.078;11.650;2022-10-15T11:02:32;100168.75;;;17.63;93.04
14612;BME280;7392;52.078;11.650;2022-10-15T11:05:05;100161.50;;;17.65;93.33
14612;BME280;7392;52.078;11.650;2022-10-15T11:07:37;100155.06;;;17.69;92.43
14612;BME280;7392;52.078;11.650;2022-10-15T11:10:15;100156.44;;;17.80;93.08
14612;BME280;7392;52.078;11.650;2022-10-15T11:12:57;100152.22;;;17.96;93.15
14612;BME280;7392;52.078;11.650;2022-10-15T11:15:35;100153.94;;;18.19;93.64
14612;BME280;7392;52.078;11.650;2022-10-15T11:18:20;100148.50;;;18.41;93.48
14612;BME280;7392;52.078;11.650;2022-10-15T11:20:55;100143.69;;;18.48;91.14
14612;BME280;7392;52.078;11.650;2022-10-15T11:23:44;100140.88;;;18.51;89.10
14612;BME280;7392;52.078;11.650;2022-10-15T11:26:29;100140.81;;;18.53;88.61
14612;BME280;7392;52.078;11.650;2022-10-15T11:29:24;100140.63;;;18.57;88.00
14612;BME280;7392;52.078;11.650;2022-10-15T11:32:02;100146.84;;;18.58;87.57
14612;BME280;7392;52.078;11.650;2022-10-15T11:34:54;100155.06;;;18.55;86.03
14612;BME280;7392;52.078;11.650;2022-10-15T11:37:32;100155.41;;;18.47;84.80
14612;BME280;7392;52.078;11.650;2022-10-15T11:40:19;100152.84;;;18.44;86.01
14612;BME280;7392;52.078;11.650;2022-10-15T11:42:54;100154.53;;;18.46;86.70
14612;BME280;7392;52.078;11.650;2022-10-15T11:45:41;100143.56;;;18.51;87.17
14612;BME280;7392;52.078;11.650;2022-10-15T11:48:17;100151.50;;;18.54;87.33
14612;BME280;7392;52.078;11.650;2022-10-15T11:50:51;100144.38;;;18.53;86.09
14612;BME280;7392;52.078;11.650;2022-10-15T11:53:36;100141.34;;;18.61;86.87
14612;BME280;7392;52.078;11.650;2022-10-15T11:56:12;100129.22;;;18.71;86.68
14612;BME280;7392;52.078;11.650;2022-10-15T11:58:45;100126.09;;;18.80;86.46
14612;BME280;7392;52.078;11.650;2022-10-15T12:01:18;100128.50;;;18.88;86.28
14612;BME280;7392;52.078;11.650;2022-10-15T12:03:51;100120.41;;;18.88;84.54
14612;BME280;7392;52.078;11.650;2022-10-15T12:06:21;100125.88;;;18.86;84.81
14612;BME280;7392;52.078;11.650;2022-10-15T12:08:52;100122.16;;;18.89;85.06
14612;BME280;7392;52.078;11.650;2022-10-15T12:11:27;100116.63;;;18.92;84.58
14612;BME280;7392;52.078;11.650;2022-10-15T12:14:02;100124.34;;;19.00;84.74
14612;BME280;7392;52.078;11.650;2022-10-15T12:16:42;100107.84;;;19.08;84.87
14612;BME280;7392;52.078;11.650;2022-10-15T12:19:16;100101.44;;;19.10;84.16
14612;BME280;7392;52.078;11.650;2022-10-15T12:22:02;100107.50;;;19.15;83.81
14612;BME280;7392;52.078;11.650;2022-10-15T12:24:53;100100.28;;;19.16;82.82
14612;BME280;7392;52.078;11.650;2022-10-15T12:27:27;100101.13;;;19.16;81.63
14612;BME280;7392;52.078;11.650;2022-10-15T12:30:20;100096.50;;;19.20;79.33
14612;BME280;7392;52.078;11.650;2022-10-15T12:32:51;100094.72;;;19.38;77.83
14612;BME280;7392;52.078;11.650;2022-10-15T12:35:23;100096.31;;;19.42;76.73
14612;BME280;7392;52.078;11.650;2022-10-15T12:37:52;100092.84;;;19.57;77.08
14612;BME280;7392;52.078;11.650;2022-10-15T12:40:28;100099.22;;;19.74;76.51
14612;BME280;7392;52.078;11.650;2022-10-15T12:42:59;100085.97;;;19.88;76.09
14612;BME280;7392;52.078;11.650;2022-10-15T12:45:35;100105.22;;;20.15;75.79
14612;BME280;7392;52.078;11.650;2022-10-15T12:48:19;100104.28;;;20.16;73.64
14612;BME280;7392;52.078;11.650;2022-10-15T12:50:47;100096.78;;;20.39;73.61
14612;BME280;7392;52.078;11.650;2022-10-15T12:53:30;100101.63;;;20.67;73.25
14612;BME280;7392;52.078;11.650;2022-10-15T12:56:12;100109.88;;;20.64;72.28
14612;BME280;7392;52.078;11.650;2022-10-15T12:58:41;100107.72;;;20.53;71.38
14612;BME280;7392;52.078;11.650;2022-10-15T13:01:29;100112.41;;;20.67;71.38
14612;BME280;7392;52.078;11.650;2022-10-15T13:03:59;100097.03;;;20.85;70.30
14612;BME280;7392;52.078;11.650;2022-10-15T13:06:32;100092.34;;;20.89;69.21
14612;BME280;7392;52.078;11.650;2022-10-15T13:09:05;100096.00;;;20.88;68.53
14612;BME280;7392;52.078;11.650;2022-10-15T13:11:44;100084.84;;;20.94;68.39